Time;durP1;ratioP1;P1;durP2;ratioP2;P2;SDS_P1;SDS_P2;PMS_P1;PMS_P2;Temp;Humidity;BMP_temperature;BMP_pressure;BME280_temperature;BME280_humidity;BME280_pressure;Samples;Min_cycle;Max_cycle;Signal;HPM_P1;HPM_P2
2022/01/27 00:00:46;;;;;;;36.90;19.88;;;;;;;4.79;51.33;101390.47;5059521;28;20410;-81
2022/01/27 00:05:47;;;;;;;40.00;20.70;;;;;;;4.54;51.61;101390.72;5056708;28;19908;-80
2022/01/27 00:08:17;;;;;;;38.78;19.85;;;;;;;4.47;51.93;101377.72;5054931;28;20032;-81
2022/01/27 00:10:58;;;;;;;37.33;20.30;;;;;;;4.46;52.27;101381.34;5061956;28;20033;-83
2022/01/27 00:13:31;;;;;;;45.03;20.77;;;;;;;4.42;52.27;101396.59;5057553;28;20029;-81
2022/01/27 00:16:18;;;;;;;34.70;19.73;;;;;;;4.38;52.06;101385.19;5058853;28;20035;-81
2022/01/27 00:18:46;;;;;;;48.40;20.00;;;;;;;4.46;51.94;101392.00;5057937;28;20021;-82
2022/01/27 00:21:14;;;;;;;38.17;20.33;;;;;;;4.48;51.98;101390.13;5056876;28;20435;-81
2022/01/27 00:23:41;;;;;;;36.22;19.00;;;;;;;4.55;51.77;101386.25;5065666;28;20024;-81
2022/01/27 00:26:07;;;;;;;39.08;19.92;;;;;;;4.65;51.25;101398.22;5064740;28;20478;-80
2022/01/27 00:28:32;;;;;;;42.25;20.38;;;;;;;4.64;51.51;101391.19;5066249;28;20029;-82
2022/01/27 00:30:58;;;;;;;34.80;17.95;;;;;;;4.65;51.30;101395.53;5064517;28;20032;-81
2022/01/27 00:33:23;;;;;;;42.13;21.15;;;;;;;4.61;51.83;101386.84;5064926;28;20036;-81
2022/01/27 00:35:49;;;;;;;45.67;20.92;;;;;;;4.64;51.72;101388.50;5065400;28;20482;-81
2022/01/27 00:38:15;;;;;;;35.42;19.83;;;;;;;4.78;50.96;101394.06;5055518;28;20052;-81
2022/01/27 00:40:40;;;;;;;34.08;19.25;;;;;;;4.74;51.24;101397.84;5054717;28;20029;-80
2022/01/27 00:43:06;;;;;;;37.42;20.58;;;;;;;4.61;51.35;101383.31;5036393;28;20371;-81
2022/01/27 00:45:32;;;;;;;37.33;20.00;;;;;;;4.64;51.52;101402.69;5053577;28;20509;-80
2022/01/27 00:48:02;;;;;;;39.15;19.88;;;;;;;4.56;51.42;101390.63;5054464;28;20111;-82
2022/01/27 00:50:27;;;;;;;36.45;20.75;;;;;;;4.36;52.08;101403.06;5054699;28;20035;-81
2022/01/27 00:52:56;;;;;;;42.25;21.35;;;;;;;4.31;52.14;101383.72;5055788;28;20522;-80
2022/01/27 00:55:23;;;;;;;39.25;20.50;;;;;;;4.40;52.11;101393.97;5054803;28;20068;-81
2022/01/27 01:00:33;;;;;;;39.53;20.17;;;;;;;4.37;52.04;101391.44;5054395;28;20051;-81
2022/01/27 01:06:35;;;;;;;41.15;20.98;;;;;;;4.24;52.28;101394.72;5054418;28;20039;-81
2022/01/27 01:09:09;;;;;;;44.20;20.95;;;;;;;4.17;52.31;101401.22;5041073;28;20048;-81
2022/01/27 01:35:28;;;;;;;37.15;20.20;;;;;;;4.46;51.63;101370.69;5012085;28;20795;-80
2022/01/27 01:37:57;;;;;;;42.33;20.35;;;;;;;4.55;51.38;101371.16;4997950;28;20050;-80
2022/01/27 01:40:24;;;;;;;43.63;20.45;;;;;;;4.57;50.98;101374.59;5015177;28;20515;-81
2022/01/27 01:42:50;;;;;;;40.65;19.67;;;;;;;4.61;51.08;101376.19;5033827;28;20025;-81
2022/01/27 01:45:18;;;;;;;47.33;22.45;;;;;;;4.65;50.99;101369.78;5034432;28;20045;-81
2022/01/27 01:47:44;;;;;;;45.67;22.55;;;;;;;4.76;51.12;101380.84;5034276;28;20029;-82
2022/01/27 01:50:10;;;;;;;52.13;24.85;;;;;;;4.73;50.93;101365.00;5034220;28;20517;-82
2022/01/27 01:52:36;;;;;;;41.78;22.42;;;;;;;4.89;51.25;101370.47;5033973;28;20030;-81
2022/01/27 01:55:03;;;;;;;51.83;23.42;;;;;;;4.97;51.09;101386.09;5035548;28;20033;-80
2022/01/27 01:57:29;;;;;;;45.55;23.77;;;;;;;5.02;51.24;101376.94;5038254;28;20037;-81
2022/01/27 01:59:54;;;;;;;48.03;23.08;;;;;;;5.08;50.74;101379.34;5038139;28;20476;-80
2022/01/27 02:02:20;;;;;;;48.88;23.60;;;;;;;4.98;50.77;101364.72;5037116;28;20113;-81
2022/01/27 02:04:45;;;;;;;58.92;26.13;;;;;;;5.00;50.72;101368.19;5038635;28;20497;-81
2022/01/27 02:07:26;;;;;;;46.45;23.63;;;;;;;4.96;50.99;101366.56;5038772;28;20029;-81
2022/01/27 02:10:16;;;;;;;37.47;19.95;;;;;;;5.06;50.76;101373.22;5037410;28;20025;-81
2022/01/27 02:17:58;;;;;;;42.80;20.38;;;;;;;5.06;50.50;101354.56;5037882;28;20131;-81
2022/01/27 02:18:27;;;;;;;74.82;34.90;;;;;;;5.01;50.95;101359.25;5056630;28;20489;-82
2022/01/27 02:20:52;;;;;;;44.70;22.77;;;;;;;5.10;50.70;101358.81;5057520;28;20049;-81
2022/01/27 02:23:18;;;;;;;45.67;19.45;;;;;;;5.15;50.63;101366.59;5023231;28;20021;-81
2022/01/27 02:25:44;;;;;;;39.80;21.33;;;;;;;5.14;50.70;101354.19;5037420;28;20029;-81
2022/01/27 02:28:09;;;;;;;33.95;18.95;;;;;;;5.11;50.36;101349.84;5037423;28;20028;-81
2022/01/27 02:30:35;;;;;;;40.05;20.88;;;;;;;5.12;50.23;101346.28;5037186;28;20080;-80
2022/01/27 02:33:01;;;;;;;36.28;18.65;;;;;;;5.19;50.00;101369.06;5055183;28;20033;-83
2022/01/27 02:35:29;;;;;;;35.58;18.73;;;;;;;5.18;50.10;101364.63;5077857;28;20406;-80
2022/01/27 02:37:55;;;;;;;40.13;17.00;;;;;;;5.08;49.37;101358.00;5049160;28;20088;-81
2022/01/27 02:40:34;;;;;;;32.65;17.08;;;;;;;5.04;49.37;101363.56;5037437;28;20029;-82
2022/01/27 02:43:03;;;;;;;28.27;16.23;;;;;;;4.93;49.95;101348.06;5037406;28;20022;-80
2022/01/27 02:45:52;;;;;;;28.90;16.35;;;;;;;4.99;49.49;101354.91;5037524;28;20061;-80
2022/01/27 02:48:17;;;;;;;36.95;17.35;;;;;;;5.02;49.44;101360.09;5024248;28;20479;-84
2022/01/27 02:50:44;;;;;;;39.63;17.17;;;;;;;5.06;49.66;101367.88;5041799;28;20028;-80
2022/01/27 02:53:09;;;;;;;35.03;18.95;;;;;;;5.05;49.86;101366.16;5036390;28;20163;-81
2022/01/27 02:55:35;;;;;;;31.73;18.02;;;;;;;5.03;49.92;101372.50;5018097;28;20495;-81
2022/01/27 02:58:02;;;;;;;35.13;18.55;;;;;;;4.93;50.07;101364.91;5035895;28;20029;-81
2022/01/27 03:00:27;;;;;;;36.03;18.40;;;;;;;4.93;50.37;101361.38;5036375;28;20104;-81
2022/01/27 03:02:52;;;;;;;33.92;18.88;;;;;;;4.88;50.63;101376.75;5036027;28;20100;-81
2022/01/27 03:05:18;;;;;;;39.35;20.67;;;;;;;4.95;50.74;101386.19;5035790;28;20420;-81
2022/01/27 03:07:48;;;;;;;36.15;18.83;;;;;;;4.87;50.77;101361.66;5035260;28;20032;-81
2022/01/27 03:10:16;;;;;;;46.65;20.48;;;;;;;4.98;50.52;101385.19;5036521;28;20028;-81
2022/01/27 03:12:42;;;;;;;35.55;20.70;;;;;;;4.87;50.72;101386.53;5037169;28;20498;-81
2022/01/27 03:15:09;;;;;;;42.88;21.08;;;;;;;4.91;50.86;101403.25;5036685;28;20108;-81
2022/01/27 03:17:35;;;;;;;38.58;20.02;;;;;;;4.86;51.11;101397.28;5036804;28;20403;-81
2022/01/27 03:20:00;;;;;;;41.10;20.65;;;;;;;4.68;51.30;101398.09;5036221;28;20029;-81
2022/01/27 03:22:26;;;;;;;40.55;21.52;;;;;;;4.64;51.55;101393.84;5036669;28;20025;-81
2022/01/27 03:24:51;;;;;;;41.50;21.73;;;;;;;4.61;52.12;101408.16;5036346;28;20503;-82
2022/01/27 03:27:21;;;;;;;39.92;21.33;;;;;;;4.61;52.04;101404.63;5036289;28;20025;-81
2022/01/27 03:29:46;;;;;;;39.53;20.75;;;;;;;4.67;52.34;101407.91;5035779;28;20033;-81
2022/01/27 03:32:12;;;;;;;44.08;21.42;;;;;;;4.64;52.41;101404.50;5035926;28;20450;-81
2022/01/27 03:34:38;;;;;;;44.00;21.45;;;;;;;4.65;52.83;101406.22;5035986;28;20029;-81
2022/01/27 03:37:04;;;;;;;44.17;23.83;;;;;;;4.56;52.83;101388.84;5043215;28;20053;-82
2022/01/27 03:39:29;;;;;;;49.83;24.80;;;;;;;4.66;52.74;101418.59;5056010;28;20402;-81
2022/01/27 03:41:56;;;;;;;53.08;25.10;;;;;;;4.64;52.72;101412.50;5056767;28;20497;-80
2022/01/27 03:44:23;;;;;;;53.67;25.25;;;;;;;4.68;52.60;101420.25;5056165;28;20067;-82
2022/01/27 03:46:50;;;;;;;40.72;22.40;;;;;;;4.69;52.91;101419.34;5057421;28;20120;-81
2022/01/27 03:49:16;;;;;;;47.55;22.98;;;;;;;4.61;52.73;101423.28;5056379;28;20028;-81
2022/01/27 03:51:42;;;;;;;42.83;22.30;;;;;;;4.52;53.02;101426.34;5055669;28;20116;-80
2022/01/27 03:54:08;;;;;;;39.80;21.45;;;;;;;4.45;52.93;101428.41;5055493;28;20100;-81
2022/01/27 03:56:33;;;;;;;42.60;20.73;;;;;;;4.33;53.31;101429.81;5055390;28;20467;-81
2022/01/27 03:58:59;;;;;;;57.33;22.08;;;;;;;4.29;53.98;101444.19;5055653;28;20461;-81
2022/01/27 04:01:24;;;;;;;43.38;22.90;;;;;;;4.19;54.42;101432.16;5055383;28;20052;-81
2022/01/27 04:03:53;;;;;;;44.08;20.85;;;;;;;4.27;54.38;101446.06;5055012;28;20020;-82
2022/01/27 04:06:22;;;;;;;54.20;20.85;;;;;;;4.18;54.98;101441.13;5056277;28;20086;-82
2022/01/27 04:08:48;;;;;;;40.08;21.02;;;;;;;4.21;55.08;101450.75;5056011;28;20474;-80
2022/01/27 04:11:14;;;;;;;42.03;21.92;;;;;;;4.07;55.34;101454.00;5056843;28;20040;-81
2022/01/27 04:13:39;;;;;;;42.53;22.27;;;;;;;3.88;55.77;101445.06;5055359;28;20031;-80
2022/01/27 04:16:05;;;;;;;47.97;22.10;;;;;;;3.88;56.03;101460.16;5055757;28;20029;-81
2022/01/27 04:18:31;;;;;;;46.45;21.75;;;;;;;3.82;56.65;101463.94;5055776;28;20039;-81
2022/01/27 04:20:56;;;;;;;41.88;22.15;;;;;;;3.82;56.59;101458.59;5056556;28;20024;-82
2022/01/27 04:23:22;;;;;;;53.15;23.77;;;;;;;3.73;56.20;101453.66;5055953;28;20024;-81
2022/01/27 04:25:48;;;;;;;47.13;22.55;;;;;;;3.86;56.43;101460.19;5055882;28;20032;-81
2022/01/27 04:28:20;;;;;;;46.33;23.70;;;;;;;3.87;56.30;101471.72;5056344;28;20028;-81
2022/01/27 04:30:46;;;;;;;41.83;23.10;;;;;;;3.88;56.15;101469.00;5037620;28;20021;-82
2022/01/27 04:33:12;;;;;;;51.90;23.85;;;;;;;3.91;56.19;101476.00;5056447;28;20371;-81
2022/01/27 04:35:43;;;;;;;41.78;20.35;;;;;;;3.93;56.40;101480.31;5037819;28;20029;-81
2022/01/27 04:40:46;;;;;;;45.55;22.20;;;;;;;4.08;55.93;101469.03;5055642;28;20031;-81
2022/01/27 04:48:26;;;;;;;50.80;22.95;;;;;;;4.17;55.73;101481.09;5055197;28;20403;-81
2022/01/27 04:50:53;;;;;;;49.20;24.40;;;;;;;4.15;55.48;101470.53;5054904;28;20450;-81
2022/01/27 04:53:31;;;;;;;44.58;23.80;;;;;;;4.29;55.52;101481.47;5054182;28;20394;-81
2022/01/27 04:55:59;;;;;;;46.05;24.33;;;;;;;4.36;55.36;101493.59;5053773;28;20414;-80
2022/01/27 04:58:31;;;;;;;49.28;24.70;;;;;;;4.44;54.91;101495.03;5054101;28;20029;-82
2022/01/27 05:00:59;;;;;;;;;;;;;;;4.54;54.86;101499.06;5053969;28;20044;-81
2022/01/27 05:03:46;;;;;;;54.90;23.92;;;;;;;4.54;55.05;101481.28;5054560;28;19916;-80
2022/01/27 05:06:11;;;;;;;55.05;24.38;;;;;;;4.60;54.77;101478.34;5035809;28;20497;-81
2022/01/27 05:08:37;;;;;;;51.90;24.63;;;;;;;4.58;54.31;101482.03;5054436;28;20024;-81
2022/01/27 05:11:16;;;;;;;52.35;25.60;;;;;;;4.70;54.14;101492.16;5036131;28;20029;-81
2022/01/27 05:14:03;;;;;;;62.58;26.48;;;;;;;4.59;54.19;101481.06;5053871;28;20032;-81
2022/01/27 05:16:29;;;;;;;52.65;25.48;;;;;;;4.70;53.74;101486.81;5053225;28;20550;-80
2022/01/27 05:18:54;;;;;;;52.03;24.83;;;;;;;4.79;53.66;101492.63;5053153;28;20054;-79
2022/01/27 05:21:21;;;;;;;48.30;21.85;;;;;;;4.73;53.24;101474.25;5059208;28;20375;-80
2022/01/27 05:23:46;;;;;;;39.53;21.08;;;;;;;4.80;53.27;101494.31;5053366;28;20083;-80
2022/01/27 05:26:12;;;;;;;45.60;22.98;;;;;;;4.86;52.90;101502.06;5053490;28;20457;-82
2022/01/27 05:28:37;;;;;;;46.53;23.08;;;;;;;4.86;53.32;101494.06;5053376;28;20033;-80
2022/01/27 05:31:05;;;;;;;51.63;23.45;;;;;;;4.81;52.74;101480.09;5056017;28;20024;-82
2022/01/27 05:33:30;;;;;;;48.83;22.33;;;;;;;4.81;52.77;101484.53;5065841;28;20020;-79
2022/01/27 05:35:56;;;;;;;71.47;24.35;;;;;;;4.88;52.90;101486.00;5073495;28;20027;-79
2022/01/27 05:38:21;;;;;;;47.33;23.02;;;;;;;4.94;53.25;101499.06;5056640;28;20052;-80
2022/01/27 05:40:47;;;;;;;46.17;24.08;;;;;;;4.86;52.99;101498.56;5053666;28;20104;-80
2022/01/27 05:43:13;;;;;;;45.22;24.15;;;;;;;4.92;53.05;101492.94;5074156;28;20028;-79
2022/01/27 05:45:39;;;;;;;49.30;25.05;;;;;;;4.95;52.98;101504.31;5072638;28;20029;-79
2022/01/27 05:48:05;;;;;;;51.83;25.95;;;;;;;5.04;53.18;101500.41;5069209;28;20032;-79
2022/01/27 05:50:31;;;;;;;63.33;28.83;;;;;;;4.97;53.03;101482.94;5055950;28;20021;-81
2022/01/27 05:52:56;;;;;;;60.72;28.33;;;;;;;5.06;52.89;101503.84;5055430;28;20044;-79
2022/01/27 05:55:22;;;;;;;67.90;30.25;;;;;;;5.06;53.02;101506.53;5068568;28;20418;-80
2022/01/27 05:57:47;;;;;;;68.25;31.02;;;;;;;5.05;53.33;101506.56;5067220;28;20035;-80
2022/01/27 06:00:13;;;;;;;82.78;32.75;;;;;;;5.03;53.27;101501.31;5072986;28;20084;-80
2022/01/27 06:02:39;;;;;;;66.43;29.50;;;;;;;5.04;53.30;101511.06;5072873;28;20374;-81
2022/01/27 06:05:05;;;;;;;76.82;34.38;;;;;;;5.06;53.34;101508.31;5054653;28;20473;-79
2022/01/27 06:07:31;;;;;;;61.85;30.15;;;;;;;4.95;53.91;101512.31;5072543;28;20028;-79
2022/01/27 06:09:58;;;;;;;69.75;30.30;;;;;;;4.95;54.01;101519.47;5072142;28;20106;-80
2022/01/27 06:13:16;;;;;;;;;;;;;;;;;;;;;
2022/01/27 06:15:41;;;;;;;57.22;28.67;;;;;;;5.02;54.54;101514.69;5072328;28;20024;-79
2022/01/27 06:18:07;;;;;;;63.53;30.23;;;;;;;5.00;54.37;101512.13;5072235;28;20445;-79
2022/01/27 06:20:33;;;;;;;66.20;31.10;;;;;;;5.12;54.54;101535.56;5072207;28;20032;-79
2022/01/27 06:22:58;;;;;;;68.95;30.67;;;;;;;5.14;54.63;101525.69;5054752;28;20032;-80
2022/01/27 06:25:26;;;;;;;89.38;36.60;;;;;;;4.99;54.63;101504.19;5063635;28;20033;-80
2022/01/27 06:27:52;;;;;;;70.13;33.15;;;;;;;5.11;55.02;101524.97;5073020;28;20031;-80
2022/01/27 06:30:18;;;;;;;78.75;32.42;;;;;;;5.07;54.98;101524.25;5072479;28;20020;-79
2022/01/27 06:32:43;;;;;;;59.72;29.02;;;;;;;4.98;54.92;101497.13;5064283;28;20036;-80
2022/01/27 06:35:09;;;;;;;64.00;32.03;;;;;;;5.22;55.10;101523.56;5063147;28;20036;-80
2022/01/27 06:37:35;;;;;;;72.90;33.70;;;;;;;5.31;55.12;101523.16;5062051;28;20057;-82
2022/01/27 06:40:01;;;;;;;66.75;31.30;;;;;;;5.36;54.75;101525.59;5057788;28;20029;-78
2022/01/27 06:42:27;;;;;;;69.57;33.53;;;;;;;5.43;54.99;101533.25;5069426;28;20017;-80
2022/01/27 06:44:53;;;;;;;73.82;32.65;;;;;;;5.47;54.81;101529.50;5061557;28;20032;-79
2022/01/27 06:47:18;;;;;;;70.65;32.92;;;;;;;5.44;54.63;101534.13;5077342;28;20103;-79
2022/01/27 06:49:44;;;;;;;77.75;33.72;;;;;;;5.48;54.32;101531.25;5076308;28;20457;-86
2022/01/27 06:52:10;;;;;;;68.05;30.85;;;;;;;5.52;54.65;101531.09;5075379;28;20363;-80
2022/01/27 06:54:36;;;;;;;77.78;31.25;;;;;;;5.61;55.32;101530.66;5059239;28;20124;-83
2022/01/27 06:57:02;;;;;;;76.28;33.08;;;;;;;5.57;54.90;101523.75;5038421;28;20479;-88
2022/01/27 06:59:28;;;;;;;66.20;33.83;;;;;;;5.53;54.49;101517.69;5037613;28;20034;-88
2022/01/27 07:01:53;;;;;;;74.97;32.97;;;;;;;5.54;54.69;101518.53;5036943;28;20384;-80
2022/01/27 07:04:21;;;;;;;79.85;33.47;;;;;;;5.61;54.70;101528.88;5037435;28;20446;-87
2022/01/27 07:06:48;;;;;;;70.60;35.45;;;;;;;5.64;54.58;101515.38;5039559;28;20029;-85
2022/01/27 07:09:13;;;;;;;75.95;34.70;;;;;;;5.75;54.23;101534.41;5040632;28;20032;-78
2022/01/27 07:11:39;;;;;;;73.80;37.80;;;;;;;5.82;54.50;101535.00;5038305;28;20025;-80
2022/01/27 07:14:05;;;;;;;76.78;34.13;;;;;;;5.82;54.18;101527.00;5038923;28;20033;-84
2022/01/27 07:16:34;;;;;;;72.88;34.60;;;;;;;5.81;54.13;101538.63;5057060;28;20025;-84
2022/01/27 07:18:59;;;;;;;74.47;30.65;;;;;;;5.60;54.45;101523.59;5058066;28;20032;-85
2022/01/27 07:21:25;;;;;;;76.85;32.58;;;;;;;5.63;54.57;101542.13;5057310;28;20063;-84
2022/01/27 07:23:51;;;;;;;73.22;35.00;;;;;;;5.60;54.53;101550.28;5056279;28;20028;-82
2022/01/27 07:26:16;;;;;;;78.35;33.50;;;;;;;5.52;55.03;101541.78;5055757;28;20443;-80
2022/01/27 07:28:42;;;;;;;74.55;33.92;;;;;;;5.52;54.93;101539.09;5045682;28;20033;-82
2022/01/27 07:31:07;;;;;;;73.20;34.05;;;;;;;5.56;55.06;101544.25;5035673;28;20029;-81
2022/01/27 07:33:33;;;;;;;60.90;30.45;;;;;;;5.40;55.31;101560.09;5017806;28;20030;-80
2022/01/27 07:35:58;;;;;;;66.13;29.88;;;;;;;5.30;55.34;101536.53;5035748;28;20065;-82
2022/01/27 07:38:26;;;;;;;55.80;28.48;;;;;;;5.27;55.53;101553.56;5053983;28;20053;-84
2022/01/27 07:40:52;;;;;;;59.25;27.58;;;;;;;5.22;55.84;101538.69;5056088;28;20037;-82
2022/01/27 07:43:17;;;;;;;65.07;30.73;;;;;;;5.25;56.06;101552.78;5055479;28;20075;-80
2022/01/27 07:45:43;;;;;;;72.80;33.03;;;;;;;5.36;56.04;101555.81;5055647;28;20043;-81
2022/01/27 07:48:08;;;;;;;65.78;29.23;;;;;;;5.31;55.82;101555.16;5055281;28;20021;-80
2022/01/27 07:50:34;;;;;;;56.10;24.63;;;;;;;5.20;55.86;101546.75;5056111;28;20029;-79
2022/01/27 07:53:00;;;;;;;70.72;29.45;;;;;;;5.20;55.83;101559.25;5055550;28;20024;-82
2022/01/27 07:55:25;;;;;;;66.38;28.08;;;;;;;5.23;56.22;101559.94;5055364;28;20029;-82
2022/01/27 07:57:51;;;;;;;66.57;29.88;;;;;;;5.25;56.32;101566.09;5036780;28;20040;-82
2022/01/27 08:00:16;;;;;;;65.32;28.55;;;;;;;5.34;55.77;101571.03;5054183;28;20056;-80
2022/01/27 08:02:43;;;;;;;63.05;29.92;;;;;;;5.40;55.65;101570.75;5054560;28;20021;-82
2022/01/27 08:05:09;;;;;;;63.05;29.20;;;;;;;5.43;55.93;101569.75;5036580;28;20142;-82
2022/01/27 08:27:50;;;;;;;56.88;28.90;;;;;;;6.06;54.46;101581.06;5047032;28;20067;-83
2022/01/27 08:30:18;;;;;;;61.00;30.27;;;;;;;6.10;54.15;101588.88;5056018;28;20040;-82
2022/01/27 08:32:49;;;;;;;63.78;29.10;;;;;;;6.17;53.89;101581.44;5055390;28;20025;-83
2022/01/27 08:35:17;;;;;;;72.10;31.00;;;;;;;6.21;53.69;101586.53;5054919;28;20033;-84
2022/01/27 08:37:42;;;;;;;63.55;28.85;;;;;;;6.19;53.65;101567.06;5036744;28;20129;-89
2022/01/27 08:40:10;;;;;;;58.17;30.98;;;;;;;6.29;53.27;101583.50;5036740;28;20060;-81
2022/01/27 08:42:40;;;;;;;86.90;32.70;;;;;;;6.29;53.16;101568.34;5054803;28;20465;-83
2022/01/27 08:45:25;;;;;;;65.63;33.70;;;;;;;6.27;53.01;101566.72;5055995;28;20033;-86
2022/01/27 08:47:51;;;;;;;68.70;32.28;;;;;;;6.39;52.88;101584.81;5038062;28;20098;-84
2022/01/27 08:50:19;;;;;;;60.50;28.58;;;;;;;6.37;52.61;101566.16;5065295;28;20420;-85
2022/01/27 08:52:44;;;;;;;73.53;30.83;;;;;;;6.45;52.72;101569.31;5057077;28;20029;-88
2022/01/27 08:55:10;;;;;;;70.38;28.45;;;;;;;6.42;52.18;101566.78;5054956;28;20035;-85
2022/01/27 08:57:36;;;;;;;58.75;26.23;;;;;;;6.39;52.12;101569.63;5036292;28;20111;-87
2022/01/27 09:00:06;;;;;;;61.80;27.60;;;;;;;6.46;52.32;101576.41;5037563;28;20039;-88
2022/01/27 09:02:31;;;;;;;50.83;25.35;;;;;;;6.55;52.00;101586.63;5055187;28;20029;-89
2022/01/27 09:04:57;;;;;;;52.08;25.02;;;;;;;6.57;52.14;101579.38;5055688;28;20025;-92
2022/01/27 09:07:22;;;;;;;54.58;25.30;;;;;;;6.64;51.88;101576.41;5061693;28;20044;-85
2022/01/27 09:09:47;;;;;;;53.70;24.17;;;;;;;6.75;51.57;101576.75;5064563;28;20033;-88
2022/01/27 09:12:14;;;;;;;56.25;27.48;;;;;;;6.81;51.64;101576.44;5055596;28;20039;-84
2022/01/27 09:14:42;;;;;;;63.03;25.55;;;;;;;6.77;51.43;101567.72;5055560;28;20033;-87
2022/01/27 09:17:12;;;;;;;53.42;27.10;;;;;;;6.83;50.87;101574.56;5054633;28;20463;-87
2022/01/27 09:19:40;;;;;;;58.05;25.10;;;;;;;6.86;50.77;101577.06;5056659;28;20116;-91
2022/01/27 09:22:11;;;;;;;46.17;24.85;;;;;;;6.81;50.48;101573.78;5074637;28;20111;-79
2022/01/27 09:24:41;;;;;;;51.28;24.63;;;;;;;6.78;51.18;101580.16;5074308;28;20482;-90
2022/01/27 09:27:07;;;;;;;56.20;26.98;;;;;;;6.80;50.97;101574.72;5054908;28;20466;-84
2022/01/27 09:29:33;;;;;;;67.50;26.83;;;;;;;6.67;50.83;101578.94;5053013;28;20029;-86
2022/01/27 09:32:02;;;;;;;55.30;25.50;;;;;;;6.62;51.05;101556.94;5054117;28;20346;-84
2022/01/27 09:34:27;;;;;;;54.72;27.15;;;;;;;6.66;50.94;101563.84;5053547;28;20021;-84
2022/01/27 09:36:54;;;;;;;66.45;26.98;;;;;;;6.52;50.92;101549.38;5072764;28;20059;-83
2022/01/27 09:39:22;;;;;;;55.72;27.10;;;;;;;6.67;51.09;101547.72;5073524;28;20175;-86
2022/01/27 09:41:52;;;;;;;61.50;29.85;;;;;;;6.76;51.21;101541.06;5056774;28;20028;-84
2022/01/27 09:44:20;;;;;;;51.95;26.00;;;;;;;6.76;51.06;101541.91;5076105;28;20489;-87
2022/01/27 09:46:46;;;;;;;55.03;25.50;;;;;;;6.74;51.09;101537.59;5057955;28;20042;-90
2022/01/27 09:49:16;;;;;;;49.72;23.27;;;;;;;6.76;50.85;101514.34;5075434;28;20940;-86
2022/01/27 09:51:45;;;;;;;55.25;24.95;;;;;;;6.81;50.93;101534.53;5076560;28;20099;-83
2022/01/27 09:54:12;;;;;;;45.28;22.60;;;;;;;6.86;51.20;101535.16;5055061;28;20036;-83
2022/01/27 09:56:40;;;;;;;46.67;21.80;;;;;;;6.84;51.02;101528.16;5064000;28;20108;-80
2022/01/27 09:59:06;;;;;;;51.00;25.75;;;;;;;6.90;51.05;101523.38;5046925;28;20078;-80
2022/01/27 10:01:32;;;;;;;49.17;24.35;;;;;;;6.91;50.67;101522.41;5042551;28;20555;-80
2022/01/27 10:04:04;;;;;;;43.78;22.83;;;;;;;7.02;50.77;101527.22;5045086;28;20092;-78
2022/01/27 10:06:32;;;;;;;42.77;22.97;;;;;;;7.13;51.15;101522.16;5033477;28;20048;-80
2022/01/27 10:09:29;;;;;;;46.30;23.90;;;;;;;7.22;50.05;101510.97;5032171;28;20021;-83
2022/01/27 10:11:55;;;;;;;47.33;23.05;;;;;;;7.14;50.35;101505.16;5052390;28;20033;-92
2022/01/27 10:14:33;;;;;;;50.00;24.65;;;;;;;7.35;49.37;101503.13;5026102;28;20035;-81
2022/01/27 10:17:01;;;;;;;55.47;25.10;;;;;;;7.45;48.98;101507.06;5051781;28;20482;-82
2022/01/27 10:19:27;;;;;;;56.20;27.40;;;;;;;7.48;49.00;101491.69;5041704;28;20395;-82
2022/01/27 10:22:04;;;;;;;58.20;22.75;;;;;;;7.36;48.87;101495.03;5037295;28;20533;-82
2022/01/27 10:24:33;;;;;;;49.42;23.65;;;;;;;7.40;48.44;101488.56;5037007;28;20410;-83
2022/01/27 10:27:21;;;;;;;41.60;23.23;;;;;;;7.43;48.98;101501.78;5040979;28;20029;-92
2022/01/27 10:32:42;;;;;;;43.80;20.90;;;;;;;7.70;47.62;101494.06;4995895;28;20545;-84
2022/01/27 10:35:09;;;;;;;43.42;22.38;;;;;;;7.80;47.25;101489.91;5024034;28;20033;-82
2022/01/27 10:37:55;;;;;;;42.95;22.17;;;;;;;7.70;47.67;101487.84;5042014;28;20045;-84
2022/01/27 10:40:23;;;;;;;40.03;20.58;;;;;;;7.81;47.24;101494.31;5040029;28;20028;-84
2022/01/27 10:43:13;;;;;;;41.25;21.52;;;;;;;7.71;47.14;101490.41;5018254;28;20329;-82
2022/01/27 10:46:01;;;;;;;50.55;22.85;;;;;;;7.78;47.30;101464.16;5038427;28;20021;-93
2022/01/27 10:48:30;;;;;;;40.45;20.42;;;;;;;7.95;46.68;101477.47;5047521;28;20443;-87
2022/01/27 10:53:23;;;;;;;34.28;18.17;;;;;;;7.92;46.36;101445.50;5039127;28;20018;-88
2022/01/27 10:56:03;;;;;;;39.90;19.23;;;;;;;7.98;45.95;101450.50;5038446;28;20024;-87
2022/01/27 10:58:29;;;;;;;42.15;19.42;;;;;;;8.09;45.88;101448.06;5027189;28;20455;-92
2022/01/27 11:00:59;;;;;;;36.13;18.35;;;;;;;8.16;44.98;101449.44;5027651;28;20061;-92
2022/01/27 11:03:28;;;;;;;34.70;18.60;;;;;;;8.08;45.10;101436.47;5039959;28;20456;-87
2022/01/27 11:05:56;;;;;;;38.20;18.38;;;;;;;8.17;45.33;101427.03;5059424;28;20025;-92
2022/01/27 11:08:24;;;;;;;35.65;17.42;;;;;;;8.27;45.04;101438.09;5044187;28;20028;-88
2022/01/27 11:10:51;;;;;;;38.88;18.02;;;;;;;8.40;44.52;101449.84;5056038;28;20025;-85
2022/01/27 11:13:19;;;;;;;38.83;20.00;;;;;;;8.40;44.13;101420.38;5039643;28;20117;-90
2022/01/27 11:15:46;;;;;;;52.75;20.27;;;;;;;8.55;43.99;101430.16;5047944;28;20050;-91
2022/01/27 11:18:14;;;;;;;40.10;18.38;;;;;;;8.58;44.43;101425.47;5048557;28;20012;-92
2022/01/27 11:26:08;;;;;;;33.67;17.48;;;;;;;8.80;43.80;101405.41;5082996;28;20039;-86
2022/01/27 11:28:35;;;;;;;35.72;18.00;;;;;;;8.93;43.08;101417.94;5076054;28;20028;-87
2022/01/27 11:31:29;;;;;;;35.40;17.77;;;;;;;9.07;42.75;101417.97;5074323;28;20033;-87
2022/01/27 11:34:03;;;;;;;36.13;19.25;;;;;;;9.16;42.69;101406.66;5063768;28;20094;-87
2022/01/27 11:36:32;;;;;;;33.28;17.10;;;;;;;9.21;42.38;101404.53;5042066;28;20032;-93
2022/01/27 11:39:17;;;;;;;33.33;16.80;;;;;;;9.18;41.93;101393.13;5046253;28;20037;-84
2022/01/27 11:41:45;;;;;;;39.30;17.15;;;;;;;9.15;42.54;101393.31;5039791;28;20078;-88
2022/01/27 11:44:36;;;;;;;30.92;18.00;;;;;;;9.24;42.40;101379.31;5053748;28;20493;-83
2022/01/27 11:47:10;;;;;;;31.90;17.33;;;;;;;9.40;42.25;101381.88;5057667;28;20033;-91
2022/01/27 11:50:12;;;;;;;33.08;15.63;;;;;;;9.32;41.90;101382.38;5058359;28;20032;-87
2022/01/27 11:52:52;;;;;;;28.98;15.80;;;;;;;9.33;41.76;101373.34;5057960;28;20437;-85
2022/01/27 11:55:24;;;;;;;32.78;15.95;;;;;;;9.45;41.61;101385.97;5056419;28;20036;-87
2022/01/27 11:57:51;;;;;;;35.27;15.63;;;;;;;9.37;41.91;101371.34;5058744;28;20041;-88
2022/01/27 12:00:19;;;;;;;38.05;16.38;;;;;;;9.40;41.49;101363.09;5060661;28;20028;-87
2022/01/27 12:03:03;;;;;;;31.35;17.52;;;;;;;9.44;41.35;101373.53;5058515;28;20051;-84
2022/01/27 12:05:34;;;;;;;34.72;17.00;;;;;;;9.39;41.60;101364.91;5043259;28;20411;-86
2022/01/27 12:08:15;;;;;;;28.35;15.15;;;;;;;9.43;41.72;101371.81;5058449;28;20032;-92
2022/01/27 12:10:50;;;;;;;34.38;15.85;;;;;;;9.43;41.41;101355.69;5044097;28;20028;-93
2022/01/27 12:16:22;;;;;;;26.25;14.48;;;;;;;9.59;41.68;101356.44;5059125;28;20040;-88
2022/01/27 12:19:09;;;;;;;29.13;15.70;;;;;;;9.58;41.40;101343.94;5038857;28;20033;-88
2022/01/27 12:21:39;;;;;;;33.28;15.77;;;;;;;9.73;41.18;101358.19;5042638;28;20025;-87
2022/01/27 12:24:28;;;;;;;32.90;16.23;;;;;;;9.75;41.28;101359.81;5057050;28;20021;-91
2022/01/27 12:27:06;;;;;;;32.33;14.80;;;;;;;9.74;41.40;101354.56;5043937;28;20028;-93
2022/01/27 12:29:35;;;;;;;31.15;16.45;;;;;;;9.64;41.55;101359.66;5049483;28;20047;-86
2022/01/27 12:32:08;;;;;;;31.50;15.82;;;;;;;9.61;41.47;101333.00;5058342;28;20032;-86
2022/01/27 12:34:36;;;;;;;29.90;16.60;;;;;;;9.66;41.49;101357.72;5058439;28;20388;-89
2022/01/27 12:37:10;;;;;;;29.70;14.98;;;;;;;9.70;41.73;101351.19;5056320;28;20048;-89
2022/01/27 12:39:49;;;;;;;30.70;15.63;;;;;;;9.75;41.69;101346.38;5038965;28;20028;-88
2022/01/27 12:42:16;;;;;;;28.00;16.00;;;;;;;9.78;41.63;101332.72;5038406;28;20182;-87
2022/01/27 12:45:05;;;;;;;28.38;16.35;;;;;;;9.79;41.58;101337.16;5077554;28;20032;-87